Latest Weather Observations for Ben Nevis

IDV60801

Issued at 8:02 am EDT Sunday 1 February 2015 (issued every 30 minutes, with the page automatically refreshed every 10 minutes)

About weather observations | Map of weather stations | Latest weather observations for VIC | Other Formats
Station Details ID: 079101 Name: BEN NEVIS Lat: -37.23 Lon: 143.20 Height: 875.0 m
Data from the previous 72 hours. | See also: Recent months at Ben Nevis
Date/Time
EDT
Temp
°C
App
Temp
°C
Dew
Point
Rel
Hum
%
Delta-T
°C
Wind Press
QNH
hPa
Press
MSL
hPa
Rain
since 9 am
mm
Dir
 
Spd
km/h
Gust
km/h
Spd
kts
Gust
kts
01/08:00am 6.9 0.1 4.9 87 0.9 SSW 30 48 16 26 - - 0.0
01/07:38am 6.7 0.2 4.9 88 0.8 S 28 50 15 27 - - 0.0
01/07:30am 6.6 0.8 4.6 87 0.9 S 24 43 13 23 - - 0.0
01/07:00am 6.5 0.8 4.8 89 0.8 S 24 43 13 23 - - 0.0
01/06:44am 6.5 0.1 5.1 91 0.6 S 28 48 15 26 - - 0.0
01/06:30am 6.5 0.9 5.5 93 0.5 S 24 44 13 24 - - 0.0
01/06:14am 6.5 0.2 5.5 93 0.5 S 28 50 15 27 - - 0.0
01/05:30am 6.7 1.2 5.7 93 0.5 S 24 41 13 22 - - 0.0
01/05:00am 6.7 1.1 5.3 91 0.7 S 24 46 13 25 - - 0.0
01/04:34am 6.6 0.2 5.2 91 0.7 S 28 48 15 26 - - 0.0
01/04:30am 6.7 0.7 5.3 91 0.7 S 26 46 14 25 - - 0.0
01/04:00am 6.8 -0.5 5.3 90 0.7 SSW 33 57 18 31 - - 0.0
01/03:34am 7.0 -0.1 5.3 89 0.8 S 32 50 17 27 - - 0.0
01/03:30am 7.0 -0.3 5.3 89 0.8 S 33 50 18 27 - - 0.0
01/03:00am 7.2 0.0 5.8 91 0.7 SSW 33 57 18 31 - - 0.0
01/02:30am 7.3 0.0 5.6 89 0.8 SSW 33 54 18 29 - - 0.0
01/02:00am 7.3 0.2 5.3 87 0.9 SSW 32 50 17 27 - - 0.0
01/01:30am 7.2 0.4 5.2 87 0.9 S 30 52 16 28 - - 0.0
01/01:28am 7.2 0.8 5.2 87 0.9 SSW 28 50 15 27 - - 0.0
01/01:00am 7.1 0.7 5.4 89 0.8 S 28 41 15 22 - - 0.0
01/12:30am 7.1 2.5 6.7 97 0.2 S 20 43 11 23 - - 0.0
01/12:00am 7.3 2.8 7.0 98 0.1 S 20 37 11 20 - - 0.0
 
Date/Time
EDT
Temp
°C
App
Temp
°C
Dew
Point
Rel
Hum
%
Delta-T
°C
Wind Press
QNH
hPa
Press
MSL
hPa
Rain
since 9 am
mm
Dir
 
Spd
km/h
Gust
km/h
Spd
kts
Gust
kts
31/11:30pm 7.5 3.1 7.2 98 0.1 S 20 35 11 19 - - 0.0
31/11:00pm 8.0 3.3 7.6 97 0.2 S 22 37 12 20 - - 0.0
31/10:30pm 8.1 3.3 7.2 94 0.4 S 22 39 12 21 - - 0.0
31/10:00pm 8.7 4.4 7.0 89 0.8 S 19 35 10 19 - - 0.0
31/09:30pm 9.0 4.2 5.7 80 1.6 S 20 35 11 19 - - 0.0
31/08:30pm 9.9 4.2 5.1 72 2.3 SSW 24 48 13 26 - - 0.0
31/08:00pm 10.5 5.2 5.1 69 2.6 S 22 43 12 23 - - 0.0
31/07:30pm 11.6 6.9 6.1 69 2.7 SSW 20 41 11 22 - - 0.0
31/07:00pm 12.2 6.6 5.6 64 3.2 S 24 43 13 23 - - 0.0
31/06:31pm 13.4 7.2 6.3 62 3.6 SSW 28 50 15 27 - - 0.0
31/06:30pm 13.2 7.4 6.1 62 3.5 SSW 26 46 14 25 - - 0.0
31/06:03pm 13.7 7.4 5.8 59 3.9 SSW 28 46 15 25 - - 0.0
31/05:45pm 14.0 7.9 6.4 60 3.8 SSW 28 46 15 25 - - 0.0
31/05:30pm 14.8 9.3 6.1 56 4.4 SSW 24 50 13 27 - - 0.0
31/05:02pm 14.7 8.4 5.8 55 4.5 S 28 52 15 28 - - 0.0
31/05:00pm 14.5 8.6 5.6 55 4.4 S 26 52 14 28 - - 0.0
31/04:30pm 15.3 9.1 6.1 54 4.7 SSW 28 48 15 26 - - 0.0
31/04:29pm 15.3 9.1 6.1 54 4.7 SSW 28 48 15 26 - - 0.0
31/04:00pm 15.7 9.9 6.2 53 4.8 SSW 26 43 14 23 - - 0.0
31/03:53pm 15.5 9.2 5.7 52 4.9 SSW 28 46 15 25 - - 0.0
31/03:30pm 15.5 9.6 5.7 52 4.9 S 26 48 14 26 - - 0.0
31/03:00pm 15.1 9.5 5.3 52 4.9 SSW 24 44 13 24 - - 0.0
31/02:30pm 14.2 8.2 5.3 55 4.4 S 26 43 14 23 - - 0.0
31/02:00pm 15.3 10.1 7.1 58 4.2 SSW 24 41 13 22 - - 0.0
31/01:30pm 14.6 9.7 6.9 60 3.9 SSW 22 39 12 21 - - 0.0
31/01:00pm 13.8 8.7 6.2 60 3.8 S 22 35 12 19 - - 0.0
31/12:30pm 13.7 8.6 6.1 60 3.8 SSW 22 43 12 23 - - 0.0
31/12:00pm 14.0 9.7 7.1 63 3.5 SSW 19 35 10 19 - - 0.0
31/11:30am 12.7 8.1 6.5 66 3.1 SSW 20 33 11 18 - - 0.0
31/11:00am 11.4 7.7 6.5 72 2.4 S 15 30 8 16 - - 0.0
31/10:30am 11.8 7.9 7.3 74 2.3 S 17 32 9 17 - - 0.0
31/10:00am 10.4 7.5 8.3 87 1.1 S 13 28 7 15 - - 0.0
31/09:30am 9.3 5.1 7.4 88 0.9 SSE 19 32 10 17 - - 0.0
31/09:00am 8.7 5.0 8.1 96 0.3 SSE 17 30 9 16 - - 0.0
31/08:30am 8.5 5.7 8.4 99 0.1 SSE 13 24 7 13 - - 0.0
31/08:00am 8.3 4.3 8.2 99 0.1 SSE 19 39 10 21 - - 0.0
31/07:30am 8.2 4.0 8.1 99 0.1 S 20 39 11 21 - - 0.0
31/07:00am 8.2 4.0 8.1 99 0.1 S 20 39 11 21 - - 0.0
31/06:30am 8.3 4.1 8.2 99 0.1 S 20 39 11 21 - - 0.0
31/06:00am 8.1 2.7 7.8 98 0.1 S 26 41 14 22 - - 0.0
31/05:33am 8.0 1.8 7.7 98 0.1 S 30 48 16 26 - - 0.0
31/05:30am 8.0 1.4 7.7 98 0.1 S 32 48 17 26 - - 0.0
31/05:00am 7.8 0.5 7.4 97 0.2 S 35 61 19 33 - - 0.0
31/04:30am 7.8 0.9 7.2 96 0.3 S 33 52 18 28 - - 0.0
31/04:03am 7.8 0.9 7.4 97 0.2 S 33 54 18 29 - - 0.0
31/04:00am 7.8 0.9 7.4 97 0.2 S 33 46 18 25 - - 0.0
31/03:41am 7.8 0.9 7.4 97 0.2 S 33 54 18 29 - - 0.0
31/03:30am 7.7 1.0 7.3 97 0.2 S 32 44 17 24 - - 0.0
31/03:00am 7.9 2.4 7.5 97 0.2 S 26 39 14 21 - - 0.0
31/02:30am 8.0 2.8 7.4 96 0.3 S 24 39 13 21 - - 0.0
31/02:00am 7.8 3.0 7.4 97 0.2 S 22 39 12 21 - - 0.0
31/01:30am 7.9 3.7 7.3 96 0.3 S 19 32 10 17 - - 0.0
31/01:00am 7.7 3.7 6.8 94 0.4 S 17 28 9 15 - - 0.0
31/12:30am 8.0 4.0 6.6 91 0.7 S 17 28 9 15 - - 0.0
31/12:00am 8.2 4.2 6.7 90 0.7 S 17 28 9 15 - - 0.0
 
Date/Time
EDT
Temp
°C
App
Temp
°C
Dew
Point
Rel
Hum
%
Delta-T
°C
Wind Press
QNH
hPa
Press
MSL
hPa
Rain
since 9 am
mm
Dir
 
Spd
km/h
Gust
km/h
Spd
kts
Gust
kts
30/11:30pm 8.4 4.1 6.9 90 0.7 S 19 32 10 17 - - 0.0
30/11:00pm 8.8 4.3 7.1 89 0.8 S 20 37 11 20 - - 0.0
30/10:30pm 9.2 4.4 7.2 87 1.0 S 22 43 12 23 - - 0.0
30/10:06pm 9.7 3.6 6.4 80 1.6 SSW 28 50 15 27 - - 0.0
30/10:00pm 9.8 3.9 6.0 77 1.8 S 26 39 14 21 - - 0.0
30/09:30pm 10.2 5.6 5.4 72 2.3 SSW 19 35 10 19 - - 0.0
30/09:00pm 10.6 5.0 5.4 70 2.5 SSW 24 44 13 24 - - 0.0
30/08:30pm 11.6 5.3 5.5 66 3.0 SSW 28 39 15 21 - - 0.0
30/08:00pm 13.2 7.2 5.4 59 3.8 SSW 26 41 14 22 - - 0.0
30/07:47pm 13.7 7.3 5.3 57 4.1 SSW 28 46 15 25 - - 0.0
30/07:30pm 14.5 8.4 5.0 53 4.7 SSW 26 48 14 26 - - 0.0
30/07:00pm 15.4 10.4 4.5 48 5.3 SSW 20 37 11 20 - - 0.0
30/06:30pm 16.5 11.8 5.2 47 5.7 S 19 37 10 20 - - 0.0
30/06:00pm 15.8 10.4 4.5 47 5.6 SSW 22 39 12 21 - - 0.0
30/05:30pm 16.9 11.8 3.9 42 6.4 SSW 20 35 11 19 - - 0.0
30/05:00pm 18.0 13.8 5.9 45 6.2 SSW 17 30 9 16 - - 0.0
30/04:30pm 17.7 13.3 5.0 43 6.4 S 17 28 9 15 - - 0.0
30/04:00pm 17.0 12.1 4.0 42 6.4 SSW 19 33 10 18 - - 0.0
30/03:30pm 15.7 11.9 4.1 46 5.6 S 13 24 7 13 - - 0.0
30/03:00pm 16.7 12.3 5.0 46 5.8 SSW 17 30 9 16 - - 0.0
30/02:30pm 15.8 12.0 6.0 52 5.0 SSW 15 26 8 14 - - 0.0
30/02:00pm 14.2 10.5 4.5 52 4.7 SSW 13 26 7 14 - - 0.0
30/01:30pm 14.0 10.1 5.4 56 4.2 S 15 32 8 17 - - 0.0
30/01:00pm 15.0 11.6 6.0 55 4.5 SSE 13 24 7 13 - - 0.0
30/12:30pm 13.3 9.9 5.7 60 3.8 S 13 24 7 13 - - 0.0
30/12:00pm 13.3 9.1 5.7 60 3.8 SSE 17 33 9 18 - - 0.0
30/11:30am 12.7 8.7 4.7 58 3.9 SSE 15 32 8 17 - - 0.0
30/11:00am 11.3 6.7 5.8 69 2.7 SSE 19 28 10 15 - - 0.0
30/10:30am 11.4 7.7 6.5 72 2.4 SSE 15 33 8 18 - - 0.0
30/10:00am 10.5 6.5 6.8 78 1.8 SSE 17 37 9 20 - - 0.0
30/09:30am 9.5 5.4 6.2 80 1.6 SSE 17 26 9 14 - - 0.0
30/09:00am 9.8 6.1 6.2 78 1.8 SSE 15 24 8 13 - - 0.0
30/08:30am 9.5 4.9 5.7 77 1.8 SE 19 33 10 18 - - 0.0
30/08:00am 8.6 3.6 6.4 86 1.1 SE 22 39 12 21 - - 0.0
30/07:30am 7.7 3.1 6.6 93 0.5 SE 20 30 11 16 - - 0.0
30/07:00am 7.4 2.7 6.0 91 0.7 SE 20 32 11 17 - - 0.0
30/06:30am 7.9 4.0 7.0 94 0.4 SE 17 30 9 16 - - 0.0
30/06:00am 7.8 3.5 7.1 95 0.3 SE 19 30 10 16 - - 0.0
30/05:30am 7.6 2.7 7.0 96 0.3 SE 22 37 12 20 - - 0.0
30/05:00am 7.6 2.3 7.0 96 0.3 SE 24 41 13 22 - - 0.0
30/04:30am 7.6 2.0 7.0 96 0.3 SE 26 44 14 24 - - 0.0
30/04:02am 7.6 1.6 7.0 96 0.3 SE 28 46 15 25 - - 0.0
30/04:00am 7.6 1.2 7.0 96 0.3 SE 30 46 16 25 - - 0.0
30/03:45am 7.7 1.7 7.1 96 0.3 ESE 28 46 15 25 - - 0.0
30/03:30am 7.7 2.1 7.1 96 0.3 SE 26 39 14 21 - - 0.0
30/03:02am 7.9 2.0 7.3 96 0.3 ESE 28 46 15 25 - - 0.0
30/03:00am 7.9 2.3 7.3 96 0.3 ESE 26 46 14 25 - - 0.0
30/02:30am 8.1 2.1 7.0 93 0.5 ESE 28 46 15 25 - - 0.0
30/02:24am 8.1 2.1 6.9 92 0.6 ESE 28 46 15 25 - - 0.0
30/02:00am 8.1 2.5 7.0 93 0.5 ESE 26 37 14 20 - - 0.0
30/01:34am 8.2 2.3 7.4 95 0.4 SE 28 46 15 25 - - 0.0
30/01:30am 8.1 2.5 7.3 95 0.4 ESE 26 46 14 25 - - 0.0
30/01:00am 8.2 1.9 7.4 95 0.4 ESE 30 57 16 31 - - 0.0
30/12:35am 8.2 2.3 7.4 95 0.4 SE 28 46 15 25 - - 0.0
30/12:30am 8.3 2.8 7.4 94 0.4 SE 26 48 14 26 - - 0.0
30/12:06am 8.4 2.4 7.2 92 0.6 SE 28 46 15 25 - - 0.0
30/12:00am 8.4 2.8 7.0 91 0.7 SE 26 39 14 21 - - 0.0
 
Date/Time
EDT
Temp
°C
App
Temp
°C
Dew
Point
Rel
Hum
%
Delta-T
°C
Wind Press
QNH
hPa
Press
MSL
hPa
Rain
since 9 am
mm
Dir
 
Spd
km/h
Gust
km/h
Spd
kts
Gust
kts
29/11:30pm 8.4 3.0 6.2 86 1.1 SE 24 43 13 23 - - 0.0
29/11:00pm 8.4 2.6 6.2 86 1.1 SE 26 41 14 22 - - 0.0
29/10:30pm 8.7 3.6 5.8 82 1.4 SE 22 44 12 24 - - 0.0
29/10:00pm 9.1 3.5 5.3 77 1.8 SE 24 39 13 21 - - 0.0
29/09:30pm 9.7 4.0 4.9 72 2.3 SE 24 41 13 22 - - 0.0
29/09:00pm 10.4 5.5 5.0 69 2.6 SE 20 35 11 19 - - 0.0
29/08:30pm 11.3 6.5 4.7 64 3.1 SE 19 37 10 20 - - 0.0
29/08:00pm 12.3 6.0 4.0 57 3.9 SE 26 39 14 21 - - 0.0
29/07:30pm 13.3 7.3 3.4 51 4.7 SSE 24 43 13 23 - - 0.0
29/07:00pm 14.1 8.2 3.8 50 4.9 SSE 24 46 13 25 - - 0.0
29/06:30pm 14.5 8.4 2.7 45 5.5 SE 24 39 13 21 - - 0.0
29/06:00pm 16.0 10.8 3.4 43 6.1 SSE 20 35 11 19 - - 0.0
29/05:30pm 16.4 11.8 3.5 42 6.2 S 17 35 9 19 - - 0.0
29/05:00pm 16.9 12.0 3.9 42 6.4 SSE 19 35 10 19 - - 0.0
29/04:30pm 16.5 11.2 3.2 41 6.4 SSE 20 39 11 21 - - 0.0
29/04:00pm 16.4 11.3 3.1 41 6.4 S 19 32 10 17 - - 0.0
29/03:30pm 17.1 12.1 4.8 44 6.1 S 20 35 11 19 - - 0.0
29/03:00pm 17.1 13.1 4.8 44 6.1 SSE 15 28 8 15 - - 0.0
29/02:30pm 16.5 11.6 5.2 47 5.7 SSE 20 37 11 20 - - 0.0
29/02:00pm 16.4 11.6 4.8 46 5.8 SSE 19 33 10 18 - - 0.0
29/01:30pm 16.2 11.3 5.2 48 5.5 SE 20 37 11 20 - - 0.0
29/01:00pm 14.9 10.1 4.6 50 5.0 SSE 19 37 10 20 - - 0.0
29/12:30pm 14.6 9.6 3.4 47 5.3 SE 19 39 10 21 - - 0.0
29/12:00pm 13.4 7.1 3.8 52 4.6 SE 26 39 14 21 - - 0.0
29/11:30am 13.6 8.7 5.3 57 4.1 SE 20 37 11 20 - - 0.0
29/11:00am 14.0 9.9 6.1 59 4.0 ESE 17 32 9 17 - - 0.0
29/10:30am 12.0 6.0 5.4 64 3.2 SE 26 44 14 24 - - 0.0
29/10:02am 11.2 4.8 5.1 66 2.9 SE 28 46 15 25 - - 0.0
29/10:00am 11.5 5.5 5.4 66 3.0 SE 26 46 14 25 - - 0.0
29/09:51am 11.1 4.7 5.0 66 2.9 SE 28 46 15 25 - - 0.0
29/09:30am 10.7 4.9 4.6 66 2.9 ESE 24 44 13 24 - - 0.0
29/09:00am 9.9 3.0 4.5 69 2.5 SE 30 57 16 31 - - 0.0
29/08:30am 9.4 1.9 4.4 71 2.3 SE 33 57 18 31 - - 0.0

Other Formats:

Comma delimited format used in spreadsheet applications
http://www.bom.gov.au/fwo/IDV60801/IDV60801.94835.axf

JavaScript Object Notation format (JSON) in row-major order
http://www.bom.gov.au/fwo/IDV60801/IDV60801.94835.json